createdAt,value
2022-10-18T05:56:58.343Z,90.20
2022-10-18T05:59:26.154Z,89.61
2022-10-18T06:01:53.683Z,90.13
2022-10-18T06:04:24.470Z,90.88
2022-10-18T06:07:30.208Z,90.38
2022-10-18T06:10:00.149Z,89.17
2022-10-18T06:12:27.979Z,89.11
2022-10-18T06:14:55.704Z,88.84
2022-10-18T06:17:23.287Z,89.16
2022-10-18T06:19:52.036Z,88.36
2022-10-18T06:22:19.700Z,87.68
2022-10-18T06:24:47.341Z,86.83
2022-10-18T06:27:14.992Z,86.67
2022-10-18T06:29:42.709Z,86.58
2022-10-18T06:32:10.517Z,86.23
2022-10-18T06:34:38.077Z,85.00
2022-10-18T06:37:05.869Z,84.53
2022-10-18T06:39:33.665Z,84.55
2022-10-18T06:42:01.257Z,84.51
2022-10-18T06:44:29.594Z,83.92
2022-10-18T06:46:57.278Z,83.57
2022-10-18T06:49:24.944Z,81.86
2022-10-18T06:51:54.077Z,81.54
2022-10-18T06:54:21.716Z,80.63
2022-10-18T06:56:49.423Z,79.54
2022-10-18T06:59:18.223Z,79.70
2022-10-18T07:01:46.002Z,79.90
2022-10-18T07:04:13.713Z,80.82
2022-10-18T07:06:41.309Z,80.61
2022-10-18T07:09:08.975Z,80.60
2022-10-18T07:11:36.807Z,79.93
2022-10-18T07:14:05.125Z,78.62
2022-10-18T07:16:33.756Z,78.25
2022-10-18T07:19:01.683Z,77.80
2022-10-18T07:21:29.882Z,77.49
2022-10-18T07:23:57.784Z,77.10
2022-10-18T07:26:31.364Z,75.17
2022-10-18T07:29:10.896Z,74.17
2022-10-18T07:31:39.293Z,74.70
2022-10-18T07:34:08.963Z,73.93
2022-10-18T07:36:36.635Z,72.67
2022-10-18T07:39:04.802Z,70.81
2022-10-18T07:41:34.175Z,69.02
2022-10-18T07:44:02.847Z,66.78
2022-10-18T07:46:30.611Z,65.34
2022-10-18T07:49:01.215Z,64.94
2022-10-18T07:51:30.975Z,65.71
2022-10-18T07:53:59.593Z,64.38
2022-10-18T07:56:27.224Z,64.68
2022-10-18T07:58:56.519Z,65.43
2022-10-18T08:01:25.600Z,65.41
2022-10-18T08:03:54.120Z,65.46
2022-10-18T08:06:23.069Z,65.44
2022-10-18T08:08:50.822Z,66.33
2022-10-18T08:11:21.221Z,64.72
2022-10-18T08:13:49.071Z,65.81
2022-10-18T08:16:36.893Z,64.17
2022-10-18T08:19:04.699Z,63.65
2022-10-18T08:21:32.436Z,62.09
2022-10-18T08:24:00.021Z,62.75
2022-10-18T08:26:27.658Z,61.60
2022-10-18T08:29:10.370Z,62.55
2022-10-18T08:31:42.995Z,62.36
2022-10-18T08:34:10.601Z,61.94
2022-10-18T08:36:38.311Z,61.67
2022-10-18T08:39:05.937Z,62.49
2022-10-18T08:42:02.818Z,62.05
2022-10-18T08:44:33.898Z,62.75
2022-10-18T08:47:10.610Z,63.42
2022-10-18T08:49:47.422Z,62.28
2022-10-18T08:52:21.393Z,61.77
2022-10-18T08:54:48.971Z,62.09
2022-10-18T08:57:18.441Z,60.48
2022-10-18T08:59:46.244Z,60.74
2022-10-18T09:02:19.654Z,59.75
2022-10-18T09:04:52.603Z,59.49
2022-10-18T09:07:51.562Z,58.40
2022-10-18T09:10:42.627Z,56.89
2022-10-18T09:13:30.497Z,58.08
2022-10-18T09:16:11.200Z,58.18
2022-10-18T09:19:00.294Z,59.47
2022-10-18T09:21:36.622Z,57.55
2022-10-18T09:24:04.233Z,56.85
2022-10-18T09:26:43.429Z,56.39
2022-10-18T09:29:23.397Z,56.15
2022-10-18T09:32:21.870Z,55.81
2022-10-18T09:35:06.115Z,57.02
2022-10-18T09:37:35.097Z,56.55
2022-10-18T09:40:30.882Z,56.48
2022-10-18T09:43:03.649Z,57.90
2022-10-18T09:45:35.367Z,57.53
2022-10-18T09:48:05.638Z,57.81
2022-10-18T09:50:42.435Z,58.46
2022-10-18T09:53:20.303Z,57.99
2022-10-18T09:56:07.455Z,58.30
2022-10-18T09:58:44.670Z,57.38
2022-10-18T10:01:19.947Z,57.81
2022-10-18T10:03:47.764Z,57.58
2022-10-18T10:06:23.292Z,58.94
2022-10-18T10:09:00.502Z,58.54
2022-10-18T10:11:45.552Z,56.83
2022-10-18T10:17:17.758Z,56.68
2022-10-18T10:20:02.243Z,56.37
2022-10-18T10:22:38.924Z,56.27
2022-10-18T10:25:08.072Z,55.47
2022-10-18T10:27:44.122Z,56.40
2022-10-18T10:30:25.759Z,55.60
2022-10-18T10:32:54.791Z,55.39
2022-10-18T10:35:52.693Z,55.63
2022-10-18T10:38:29.681Z,54.24
2022-10-18T10:40:58.168Z,54.67
2022-10-18T10:43:37.522Z,54.08
2022-10-18T10:46:19.247Z,53.82
2022-10-18T10:48:56.287Z,52.99
2022-10-18T10:51:36.529Z,51.85
2022-10-18T10:54:11.608Z,51.52
2022-10-18T10:57:03.969Z,51.29
2022-10-18T11:02:18.276Z,48.89
2022-10-18T11:04:48.242Z,47.46
2022-10-18T11:07:34.058Z,47.10
2022-10-18T11:10:15.464Z,47.05
2022-10-18T11:12:49.517Z,46.84
2022-10-18T11:15:39.073Z,47.48
2022-10-18T11:18:14.557Z,47.98
2022-10-18T11:20:47.406Z,47.00
2022-10-18T11:23:16.379Z,47.66
2022-10-18T11:25:55.767Z,48.17
2022-10-18T11:28:50.658Z,46.58
2022-10-18T11:31:23.923Z,47.46
2022-10-18T11:34:10.609Z,47.16
2022-10-18T11:37:27.616Z,47.23
2022-10-18T11:39:59.689Z,46.01
2022-10-18T11:42:40.200Z,44.14
2022-10-18T11:45:16.775Z,44.48
2022-10-18T11:47:53.567Z,43.08
2022-10-18T11:50:41.056Z,44.18
2022-10-18T11:53:11.305Z,45.21
2022-10-18T11:56:16.697Z,45.29
2022-10-18T11:58:55.494Z,45.59
2022-10-18T12:01:45.674Z,46.14
2022-10-18T12:04:22.964Z,46.15
2022-10-18T12:06:54.267Z,47.27
2022-10-18T12:09:44.211Z,47.33
2022-10-18T12:12:18.296Z,47.13
2022-10-18T12:15:05.426Z,47.23
2022-10-18T12:17:46.176Z,47.56
2022-10-18T12:20:29.714Z,46.88
2022-10-18T12:23:18.657Z,47.17
2022-10-18T12:25:51.253Z,47.37
2022-10-18T12:28:56.096Z,46.78
2022-10-18T12:31:50.401Z,46.65
2022-10-18T12:34:36.405Z,47.66
2022-10-18T12:37:27.594Z,48.12
2022-10-18T12:40:21.779Z,48.42
2022-10-18T12:42:51.872Z,47.75
2022-10-18T12:45:27.344Z,48.07
2022-10-18T12:47:59.733Z,48.25
2022-10-18T12:50:35.219Z,47.18
2022-10-18T12:53:24.689Z,48.19
2022-10-18T12:55:53.960Z,47.35
2022-10-18T12:58:23.277Z,47.58
2022-10-18T13:00:51.996Z,47.62
2022-10-18T13:03:25.757Z,45.81
2022-10-18T13:05:57.929Z,46.87
2022-10-18T13:08:31.829Z,47.84
2022-10-18T13:11:08.261Z,49.15
2022-10-18T13:14:08.541Z,48.06
2022-10-18T13:16:57.273Z,49.19
2022-10-18T13:19:39.745Z,47.42
2022-10-18T13:22:44.910Z,48.35
2022-10-18T13:25:37.419Z,48.22
2022-10-18T13:28:31.578Z,48.93
2022-10-18T13:31:08.990Z,49.09
2022-10-18T13:33:39.616Z,48.60
2022-10-18T13:36:26.178Z,47.67
2022-10-18T13:38:55.678Z,48.71
2022-10-18T13:41:56.505Z,48.31
2022-10-18T13:44:43.645Z,48.04
2022-10-18T13:47:32.250Z,48.72
2022-10-18T13:53:29.527Z,48.02
2022-10-18T13:56:00.445Z,48.84
2022-10-18T13:58:53.851Z,49.42
2022-10-18T14:01:52.771Z,50.19
2022-10-18T14:04:37.075Z,49.80
2022-10-18T14:07:06.737Z,49.37
2022-10-18T14:09:49.978Z,48.75
2022-10-18T14:12:33.737Z,48.73
2022-10-18T14:15:18.336Z,48.64
2022-10-18T14:17:55.989Z,47.88
2022-10-18T14:20:29.873Z,48.92
2022-10-18T14:23:07.168Z,49.47
2022-10-18T14:25:37.765Z,50.05
2022-10-18T14:28:16.420Z,49.93
2022-10-18T14:31:06.456Z,48.96
2022-10-18T14:33:43.365Z,50.30
2022-10-18T14:36:20.815Z,49.79
2022-10-18T14:39:01.882Z,49.49
2022-10-18T14:41:38.638Z,49.57
2022-10-18T14:44:27.537Z,50.28
2022-10-18T14:47:14.494Z,51.10
2022-10-18T14:49:46.820Z,51.94
2022-10-18T14:52:18.637Z,51.89
2022-10-18T14:54:46.802Z,52.04
2022-10-18T14:57:22.762Z,52.33
2022-10-18T14:59:58.526Z,51.84
2022-10-18T15:02:29.410Z,51.88
2022-10-18T15:05:19.929Z,51.60
2022-10-18T15:07:49.206Z,51.58
2022-10-18T15:10:43.529Z,52.39
2022-10-18T15:13:13.628Z,51.43
2022-10-18T15:15:42.041Z,51.98
2022-10-18T15:18:35.805Z,52.39
2022-10-18T15:21:24.237Z,52.23
2022-10-18T15:23:52.447Z,52.90
2022-10-18T15:26:24.886Z,53.01
2022-10-18T15:28:56.566Z,51.92
2022-10-18T15:31:35.008Z,51.86
2022-10-18T15:34:10.832Z,52.47
2022-10-18T15:36:39.249Z,52.55
2022-10-18T15:39:14.832Z,54.07
2022-10-18T15:42:28.579Z,54.11
2022-10-18T15:44:56.311Z,54.62
2022-10-18T15:47:25.118Z,54.99
2022-10-18T15:49:58.541Z,55.95
2022-10-18T15:52:36.659Z,56.51
2022-10-18T15:55:34.431Z,57.64
2022-10-18T15:58:06.885Z,57.35
2022-10-18T16:00:34.897Z,58.03
2022-10-18T16:03:11.379Z,58.73
2022-10-18T16:05:40.313Z,59.19
2022-10-18T16:08:19.310Z,59.00
2022-10-18T16:10:55.377Z,59.07
2022-10-18T16:13:23.398Z,59.36
2022-10-18T16:16:02.134Z,59.41
2022-10-18T16:18:34.528Z,61.40
2022-10-18T16:21:07.666Z,61.04
2022-10-18T16:23:44.458Z,60.68
2022-10-18T16:26:18.052Z,61.30
2022-10-18T16:28:50.649Z,61.95
2022-10-18T16:31:21.458Z,62.10
2022-10-18T16:33:50.522Z,62.88
2022-10-18T16:36:23.192Z,64.07
2022-10-18T16:38:55.297Z,64.04
2022-10-18T16:41:24.151Z,65.31
2022-10-18T16:43:52.215Z,64.79
2022-10-18T16:46:22.728Z,64.87
2022-10-18T16:48:51.960Z,66.02
2022-10-18T16:51:20.302Z,65.81
2022-10-18T16:53:49.017Z,65.70
2022-10-18T16:56:19.947Z,65.29
2022-10-18T16:58:48.400Z,66.29
2022-10-18T17:01:19.197Z,66.23
2022-10-18T17:03:47.512Z,66.08
2022-10-18T17:06:27.385Z,66.03
2022-10-18T17:08:57.011Z,66.73
2022-10-18T17:11:27.058Z,66.56
2022-10-18T17:13:55.181Z,67.46
2022-10-18T17:16:31.508Z,67.11
2022-10-18T17:19:02.415Z,67.09
2022-10-18T17:21:31.534Z,67.05
2022-10-18T17:24:01.322Z,67.44
2022-10-18T17:26:30.089Z,68.17
2022-10-18T17:29:01.393Z,68.21
2022-10-18T17:31:31.027Z,68.43
2022-10-18T17:34:01.741Z,68.88
2022-10-18T17:36:31.503Z,69.52
2022-10-18T17:38:59.554Z,69.71
2022-10-18T17:41:27.694Z,70.25
2022-10-18T17:43:55.539Z,70.58
2022-10-18T17:46:23.868Z,70.25
2022-10-18T17:48:51.737Z,70.41
2022-10-18T17:51:19.806Z,70.23
2022-10-18T17:53:47.546Z,70.34
2022-10-18T17:56:16.256Z,71.49
2022-10-18T17:58:44.033Z,71.30
2022-10-18T18:01:21.255Z,71.16
2022-10-18T18:03:49.327Z,71.36
2022-10-18T18:06:22.450Z,71.98
2022-10-18T18:08:50.674Z,72.08
2022-10-18T18:11:18.639Z,71.90
2022-10-18T18:13:46.520Z,71.49
2022-10-18T18:16:20.415Z,71.53
2022-10-18T18:18:50.900Z,72.24
2022-10-18T18:21:20.331Z,73.48
2022-10-18T18:23:48.808Z,73.86
2022-10-18T18:26:18.655Z,74.04
2022-10-18T18:28:47.020Z,74.17
2022-10-18T18:31:25.880Z,75.07
2022-10-18T18:33:55.803Z,75.47
2022-10-18T18:36:29.032Z,76.19
2022-10-18T18:38:57.869Z,77.16
2022-10-18T18:41:27.512Z,77.24
2022-10-18T18:44:04.277Z,76.78
2022-10-18T18:46:37.022Z,77.32
2022-10-18T18:49:06.380Z,77.96
2022-10-18T18:51:37.466Z,78.01
2022-10-18T18:54:06.937Z,78.49
2022-10-18T18:56:34.880Z,78.12
2022-10-18T18:59:03.463Z,78.29
2022-10-18T19:01:34.772Z,78.71
2022-10-18T19:04:03.820Z,80.12
2022-10-18T19:06:37.492Z,80.61
2022-10-18T19:09:18.491Z,81.58
2022-10-18T19:11:47.904Z,81.61
2022-10-18T19:14:16.869Z,81.58
2022-10-18T19:16:50.009Z,81.83
2022-10-18T19:19:25.504Z,82.47
2022-10-18T19:21:59.090Z,82.73
2022-10-18T19:24:28.990Z,82.32
2022-10-18T19:26:59.459Z,82.44
2022-10-18T19:29:30.298Z,83.32
2022-10-18T19:32:02.309Z,83.27
2022-10-18T19:34:31.921Z,82.48
2022-10-18T19:37:03.337Z,82.88
2022-10-18T19:39:35.107Z,82.60
2022-10-18T19:42:07.439Z,82.57
2022-10-18T19:44:36.704Z,82.62
2022-10-18T19:47:06.175Z,82.55
2022-10-18T19:49:40.851Z,83.59
2022-10-18T19:52:16.164Z,83.71
2022-10-18T19:54:45.232Z,83.61
2022-10-18T19:57:13.190Z,83.54
2022-10-18T20:02:15.336Z,84.03
2022-10-18T20:04:43.240Z,84.19
2022-10-18T20:07:11.214Z,83.84
2022-10-18T20:09:40.068Z,84.38
2022-10-18T20:12:07.884Z,84.26
2022-10-18T20:14:35.816Z,84.58
2022-10-18T20:17:04.214Z,84.92
2022-10-18T20:19:32.282Z,85.18
2022-10-18T20:22:00.127Z,85.07
2022-10-18T20:24:27.955Z,84.47
2022-10-18T20:26:55.860Z,84.82
2022-10-18T20:29:25.567Z,84.55
2022-10-18T20:31:55.756Z,85.32
2022-10-18T20:34:26.210Z,85.33
2022-10-18T20:36:54.872Z,85.64
2022-10-18T20:39:22.985Z,85.46
2022-10-18T20:41:50.962Z,85.52
2022-10-18T20:44:23.424Z,85.38
2022-10-18T20:46:51.811Z,86.00
2022-10-18T20:49:19.879Z,85.78
2022-10-18T20:51:47.795Z,85.60
2022-10-18T20:54:15.599Z,85.70
2022-10-18T20:56:43.799Z,86.07
2022-10-18T20:59:12.356Z,86.40
2022-10-18T21:01:40.608Z,86.51
2022-10-18T21:04:10.243Z,86.24
2022-10-18T21:06:41.137Z,85.92
2022-10-18T21:09:18.138Z,86.10
2022-10-18T21:11:48.318Z,85.82
2022-10-18T21:14:18.801Z,85.79
2022-10-18T21:16:47.314Z,86.31
2022-10-18T21:19:21.081Z,86.34
2022-10-18T21:21:51.036Z,86.77
2022-10-18T21:24:20.088Z,86.90
2022-10-18T21:26:48.465Z,87.26
2022-10-18T21:29:21.634Z,87.45
2022-10-18T21:31:54.248Z,87.35
2022-10-18T21:34:22.212Z,87.73
2022-10-18T21:36:50.015Z,87.42
2022-10-18T21:39:21.066Z,88.06
2022-10-18T21:41:49.829Z,87.07
2022-10-18T21:44:18.078Z,87.16
2022-10-18T21:46:46.959Z,87.50
2022-10-18T21:49:15.806Z,87.28
2022-10-18T21:51:43.711Z,87.37
2022-10-18T21:54:14.346Z,87.51
2022-10-18T21:56:42.550Z,87.00
2022-10-18T21:59:13.682Z,87.27
2022-10-18T22:01:43.718Z,87.13
2022-10-18T22:04:21.802Z,87.68
2022-10-18T22:06:50.237Z,87.04
2022-10-18T22:09:18.194Z,87.15
2022-10-18T22:11:49.832Z,87.20
2022-10-18T22:14:17.648Z,87.25
2022-10-18T22:16:45.398Z,88.07
2022-10-18T22:19:13.598Z,87.70
2022-10-18T22:21:41.381Z,87.65
2022-10-18T22:24:10.246Z,88.02
2022-10-18T22:26:42.801Z,87.89
2022-10-18T22:29:17.061Z,88.36
2022-10-18T22:31:47.370Z,88.83
2022-10-18T22:34:19.406Z,88.79
2022-10-18T22:36:47.292Z,88.65
2022-10-18T22:39:16.911Z,88.32
2022-10-18T22:41:45.268Z,87.68
2022-10-18T22:44:14.569Z,87.59
2022-10-18T22:46:42.861Z,87.37
2022-10-18T22:49:11.754Z,87.88
2022-10-18T22:51:40.285Z,88.27
2022-10-18T22:54:09.634Z,88.26
2022-10-18T22:56:37.487Z,88.72
2022-10-18T22:59:05.264Z,88.84
2022-10-18T23:01:32.971Z,88.36
2022-10-18T23:04:01.728Z,88.78
2022-10-18T23:06:33.123Z,88.62
2022-10-18T23:09:05.235Z,88.45
2022-10-18T23:11:33.994Z,89.21
2022-10-18T23:14:03.887Z,89.16
2022-10-18T23:16:32.041Z,89.23
2022-10-18T23:19:00.178Z,89.21
2022-10-18T23:21:28.901Z,88.96
2022-10-18T23:23:57.735Z,88.83
2022-10-18T23:26:27.834Z,89.21
2022-10-18T23:28:56.205Z,89.57
2022-10-18T23:31:30.055Z,89.96
2022-10-18T23:34:00.281Z,90.67
2022-10-18T23:36:28.685Z,89.51
2022-10-18T23:38:56.974Z,89.78
2022-10-18T23:41:26.149Z,90.19
2022-10-18T23:43:53.906Z,90.41
2022-10-18T23:46:22.305Z,90.69
2022-10-18T23:48:50.171Z,90.53
2022-10-18T23:51:18.586Z,90.26
2022-10-18T23:53:46.734Z,91.42
2022-10-18T23:56:16.277Z,90.86
2022-10-18T23:58:45.086Z,90.67
